sensor_id;sensor_type;location;lat;lon;timestamp;temperature;humidity
27506;DHT22;14939;43.596;1.320;2022-12-29T00:01:36;8.80;99.90
27506;DHT22;14939;43.596;1.320;2022-12-29T00:04:03;8.70;99.90
27506;DHT22;14939;43.596;1.320;2022-12-29T00:06:29;8.70;99.90
27506;DHT22;14939;43.596;1.320;2022-12-29T00:08:55;8.70;99.90
27506;DHT22;14939;43.596;1.320;2022-12-29T00:11:23;8.70;99.90
27506;DHT22;14939;43.596;1.320;2022-12-29T00:13:49;8.70;99.90
27506;DHT22;14939;43.596;1.320;2022-12-29T00:16:34;8.70;99.90
27506;DHT22;14939;43.596;1.320;2022-12-29T00:19:00;8.70;99.90
27506;DHT22;14939;43.596;1.320;2022-12-29T00:21:27;8.70;99.90
27506;DHT22;14939;43.596;1.320;2022-12-29T00:24:17;8.70;99.90
27506;DHT22;14939;43.596;1.320;2022-12-29T00:29:46;8.80;99.90
27506;DHT22;14939;43.596;1.320;2022-12-29T00:32:30;8.80;99.90
27506;DHT22;14939;43.596;1.320;2022-12-29T00:35:38;8.80;99.90
27506;DHT22;14939;43.596;1.320;2022-12-29T00:38:07;8.80;99.90
27506;DHT22;14939;43.596;1.320;2022-12-29T00:40:52;8.80;99.90
27506;DHT22;14939;43.596;1.320;2022-12-29T00:43:36;8.80;99.90
27506;DHT22;14939;43.596;1.320;2022-12-29T00:46:20;8.80;99.90
27506;DHT22;14939;43.596;1.320;2022-12-29T00:48:46;8.80;99.90
27506;DHT22;14939;43.596;1.320;2022-12-29T00:51:30;8.80;99.90
27506;DHT22;14939;43.596;1.320;2022-12-29T00:53:56;8.80;99.90
27506;DHT22;14939;43.596;1.320;2022-12-29T00:56:22;8.80;99.90
27506;DHT22;14939;43.596;1.320;2022-12-29T00:58:47;8.80;99.90
27506;DHT22;14939;43.596;1.320;2022-12-29T01:01:13;8.80;99.90
27506;DHT22;14939;43.596;1.320;2022-12-29T01:03:39;8.80;99.90
27506;DHT22;14939;43.596;1.320;2022-12-29T01:06:09;8.80;99.90
27506;DHT22;14939;43.596;1.320;2022-12-29T01:08:35;8.80;99.90
27506;DHT22;14939;43.596;1.320;2022-12-29T01:11:10;8.80;99.90
27506;DHT22;14939;43.596;1.320;2022-12-29T01:13:36;8.80;99.90
27506;DHT22;14939;43.596;1.320;2022-12-29T01:16:06;8.80;99.90
27506;DHT22;14939;43.596;1.320;2022-12-29T01:18:32;8.80;99.90
27506;DHT22;14939;43.596;1.320;2022-12-29T01:21:04;8.80;99.90
27506;DHT22;14939;43.596;1.320;2022-12-29T01:23:30;8.80;99.90
27506;DHT22;14939;43.596;1.320;2022-12-29T01:25:56;8.70;99.90
27506;DHT22;14939;43.596;1.320;2022-12-29T01:28:41;8.70;99.90
27506;DHT22;14939;43.596;1.320;2022-12-29T01:31:08;8.70;99.90
27506;DHT22;14939;43.596;1.320;2022-12-29T01:33:33;8.70;99.90
27506;DHT22;14939;43.596;1.320;2022-12-29T01:36:11;8.80;99.90
27506;DHT22;14939;43.596;1.320;2022-12-29T01:38:37;8.80;99.90
27506;DHT22;14939;43.596;1.320;2022-12-29T01:41:04;8.70;99.90
27506;DHT22;14939;43.596;1.320;2022-12-29T01:49:11;8.80;99.90
27506;DHT22;14939;43.596;1.320;2022-12-29T01:54:39;8.80;99.90
27506;DHT22;14939;43.596;1.320;2022-12-29T01:57:10;8.80;99.90
27506;DHT22;14939;43.596;1.320;2022-12-29T01:59:41;8.80;99.90
27506;DHT22;14939;43.596;1.320;2022-12-29T02:02:08;8.80;99.90
27506;DHT22;14939;43.596;1.320;2022-12-29T02:04:35;8.90;99.90
27506;DHT22;14939;43.596;1.320;2022-12-29T02:07:08;8.90;99.90
27506;DHT22;14939;43.596;1.320;2022-12-29T02:09:36;8.90;99.90
27506;DHT22;14939;43.596;1.320;2022-12-29T02:12:02;8.90;99.90
27506;DHT22;14939;43.596;1.320;2022-12-29T02:14:28;8.90;99.90
27506;DHT22;14939;43.596;1.320;2022-12-29T02:22:39;8.90;99.90
27506;DHT22;14939;43.596;1.320;2022-12-29T02:42:34;8.80;99.90
27506;DHT22;14939;43.596;1.320;2022-12-29T02:51:02;8.80;99.90
27506;DHT22;14939;43.596;1.320;2022-12-29T02:53:29;8.80;99.90
27506;DHT22;14939;43.596;1.320;2022-12-29T02:56:14;8.80;99.90
27506;DHT22;14939;43.596;1.320;2022-12-29T02:58:40;8.80;99.90
27506;DHT22;14939;43.596;1.320;2022-12-29T03:04:03;8.80;99.90
27506;DHT22;14939;43.596;1.320;2022-12-29T03:06:42;8.80;99.90
27506;DHT22;14939;43.596;1.320;2022-12-29T03:15:03;8.80;99.90
27506;DHT22;14939;43.596;1.320;2022-12-29T03:17:57;8.80;99.90
27506;DHT22;14939;43.596;1.320;2022-12-29T03:20:39;8.80;99.90
27506;DHT22;14939;43.596;1.320;2022-12-29T03:23:07;8.80;99.90
27506;DHT22;14939;43.596;1.320;2022-12-29T03:25:40;8.90;99.90
27506;DHT22;14939;43.596;1.320;2022-12-29T03:28:11;8.90;99.90
27506;DHT22;14939;43.596;1.320;2022-12-29T03:30:39;8.80;99.90
27506;DHT22;14939;43.596;1.320;2022-12-29T03:33:10;8.90;99.90
27506;DHT22;14939;43.596;1.320;2022-12-29T03:35:40;8.90;99.90
27506;DHT22;14939;43.596;1.320;2022-12-29T03:41:12;8.90;99.90
27506;DHT22;14939;43.596;1.320;2022-12-29T03:43:39;8.90;99.90
27506;DHT22;14939;43.596;1.320;2022-12-29T03:46:05;8.90;99.90
27506;DHT22;14939;43.596;1.320;2022-12-29T03:48:31;9.00;99.90
27506;DHT22;14939;43.596;1.320;2022-12-29T03:50:58;9.00;99.90
27506;DHT22;14939;43.596;1.320;2022-12-29T03:53:24;9.00;99.90
27506;DHT22;14939;43.596;1.320;2022-12-29T03:55:50;9.00;99.90
27506;DHT22;14939;43.596;1.320;2022-12-29T03:58:16;9.00;99.90
27506;DHT22;14939;43.596;1.320;2022-12-29T04:00:41;9.00;99.90
27506;DHT22;14939;43.596;1.320;2022-12-29T04:03:07;9.00;99.90
27506;DHT22;14939;43.596;1.320;2022-12-29T04:05:33;9.10;99.90
27506;DHT22;14939;43.596;1.320;2022-12-29T04:07:58;9.10;99.90
27506;DHT22;14939;43.596;1.320;2022-12-29T04:10:25;9.10;99.90
27506;DHT22;14939;43.596;1.320;2022-12-29T04:12:51;9.10;99.90
27506;DHT22;14939;43.596;1.320;2022-12-29T04:15:16;9.10;99.90
27506;DHT22;14939;43.596;1.320;2022-12-29T04:17:42;9.10;99.90
27506;DHT22;14939;43.596;1.320;2022-12-29T04:20:08;9.20;99.90
27506;DHT22;14939;43.596;1.320;2022-12-29T04:23:03;9.10;99.90
27506;DHT22;14939;43.596;1.320;2022-12-29T04:25:31;9.20;99.90
27506;DHT22;14939;43.596;1.320;2022-12-29T04:27:57;9.10;99.90
27506;DHT22;14939;43.596;1.320;2022-12-29T04:30:23;9.10;99.90
27506;DHT22;14939;43.596;1.320;2022-12-29T04:32:49;9.10;99.90
27506;DHT22;14939;43.596;1.320;2022-12-29T04:35:15;9.10;99.90
27506;DHT22;14939;43.596;1.320;2022-12-29T04:37:40;9.20;99.90
27506;DHT22;14939;43.596;1.320;2022-12-29T04:40:07;9.20;99.90
27506;DHT22;14939;43.596;1.320;2022-12-29T04:42:32;9.20;99.90
27506;DHT22;14939;43.596;1.320;2022-12-29T04:44:58;9.20;99.90
27506;DHT22;14939;43.596;1.320;2022-12-29T04:47:24;9.20;99.90
27506;DHT22;14939;43.596;1.320;2022-12-29T04:49:49;9.20;99.90
27506;DHT22;14939;43.596;1.320;2022-12-29T04:52:15;9.20;99.90
27506;DHT22;14939;43.596;1.320;2022-12-29T04:54:41;9.30;99.90
27506;DHT22;14939;43.596;1.320;2022-12-29T04:57:07;9.30;99.90
27506;DHT22;14939;43.596;1.320;2022-12-29T04:59:32;9.30;99.90
27506;DHT22;14939;43.596;1.320;2022-12-29T05:01:58;9.30;99.90
27506;DHT22;14939;43.596;1.320;2022-12-29T05:04:24;9.30;99.90
27506;DHT22;14939;43.596;1.320;2022-12-29T05:06:49;9.30;99.90
27506;DHT22;14939;43.596;1.320;2022-12-29T05:09:15;9.30;99.90
27506;DHT22;14939;43.596;1.320;2022-12-29T05:11:41;9.30;99.90
27506;DHT22;14939;43.596;1.320;2022-12-29T05:14:06;9.30;99.90
27506;DHT22;14939;43.596;1.320;2022-12-29T05:16:32;9.30;99.90
27506;DHT22;14939;43.596;1.320;2022-12-29T05:18:58;9.30;99.90
27506;DHT22;14939;43.596;1.320;2022-12-29T05:21:24;9.30;99.90
27506;DHT22;14939;43.596;1.320;2022-12-29T05:23:49;9.30;99.90
27506;DHT22;14939;43.596;1.320;2022-12-29T05:26:15;9.30;99.90
27506;DHT22;14939;43.596;1.320;2022-12-29T05:28:41;9.30;99.90
27506;DHT22;14939;43.596;1.320;2022-12-29T05:31:06;9.30;99.90
27506;DHT22;14939;43.596;1.320;2022-12-29T05:33:32;9.30;99.90
27506;DHT22;14939;43.596;1.320;2022-12-29T05:36:04;9.30;99.90
27506;DHT22;14939;43.596;1.320;2022-12-29T05:38:30;9.30;99.90
27506;DHT22;14939;43.596;1.320;2022-12-29T05:40:56;9.30;99.90
27506;DHT22;14939;43.596;1.320;2022-12-29T05:43:21;9.40;99.90
27506;DHT22;14939;43.596;1.320;2022-12-29T05:45:50;9.40;99.90
27506;DHT22;14939;43.596;1.320;2022-12-29T05:48:16;9.40;99.90
27506;DHT22;14939;43.596;1.320;2022-12-29T05:50:42;9.40;99.90
27506;DHT22;14939;43.596;1.320;2022-12-29T05:53:08;9.40;99.90
27506;DHT22;14939;43.596;1.320;2022-12-29T05:55:34;9.40;99.90
27506;DHT22;14939;43.596;1.320;2022-12-29T05:58:00;9.40;99.90
27506;DHT22;14939;43.596;1.320;2022-12-29T06:00:26;9.40;99.90
27506;DHT22;14939;43.596;1.320;2022-12-29T06:02:51;9.30;99.90
27506;DHT22;14939;43.596;1.320;2022-12-29T06:05:17;9.30;99.90
27506;DHT22;14939;43.596;1.320;2022-12-29T06:07:43;9.20;99.90
27506;DHT22;14939;43.596;1.320;2022-12-29T06:10:10;9.20;99.90
27506;DHT22;14939;43.596;1.320;2022-12-29T06:12:35;9.20;99.90
27506;DHT22;14939;43.596;1.320;2022-12-29T06:15:01;9.20;99.90
27506;DHT22;14939;43.596;1.320;2022-12-29T06:17:27;9.20;99.90
27506;DHT22;14939;43.596;1.320;2022-12-29T06:19:53;9.10;99.90
27506;DHT22;14939;43.596;1.320;2022-12-29T06:22:18;9.10;99.90
27506;DHT22;14939;43.596;1.320;2022-12-29T06:24:44;9.00;99.90
27506;DHT22;14939;43.596;1.320;2022-12-29T06:27:10;8.90;99.90
27506;DHT22;14939;43.596;1.320;2022-12-29T06:29:35;8.80;99.90
27506;DHT22;14939;43.596;1.320;2022-12-29T06:32:03;8.80;99.90
27506;DHT22;14939;43.596;1.320;2022-12-29T06:34:29;8.80;99.90
27506;DHT22;14939;43.596;1.320;2022-12-29T06:36:54;8.70;99.90
27506;DHT22;14939;43.596;1.320;2022-12-29T06:39:20;8.70;99.90
27506;DHT22;14939;43.596;1.320;2022-12-29T06:41:46;8.80;99.90
27506;DHT22;14939;43.596;1.320;2022-12-29T06:44:12;8.80;99.90
27506;DHT22;14939;43.596;1.320;2022-12-29T06:46:37;8.90;99.90
27506;DHT22;14939;43.596;1.320;2022-12-29T06:49:03;8.90;99.90
27506;DHT22;14939;43.596;1.320;2022-12-29T06:51:29;8.90;99.90
27506;DHT22;14939;43.596;1.320;2022-12-29T06:53:54;8.80;99.90
27506;DHT22;14939;43.596;1.320;2022-12-29T06:56:20;8.80;99.90
27506;DHT22;14939;43.596;1.320;2022-12-29T06:58:46;8.80;99.90
27506;DHT22;14939;43.596;1.320;2022-12-29T07:01:11;8.70;99.90
27506;DHT22;14939;43.596;1.320;2022-12-29T07:03:37;8.70;99.90
27506;DHT22;14939;43.596;1.320;2022-12-29T07:06:03;8.70;99.90
27506;DHT22;14939;43.596;1.320;2022-12-29T07:08:29;8.70;99.90
27506;DHT22;14939;43.596;1.320;2022-12-29T07:10:54;8.70;99.90
27506;DHT22;14939;43.596;1.320;2022-12-29T07:13:20;8.70;99.90
27506;DHT22;14939;43.596;1.320;2022-12-29T07:15:46;8.60;99.90
27506;DHT22;14939;43.596;1.320;2022-12-29T07:18:12;8.60;99.90
27506;DHT22;14939;43.596;1.320;2022-12-29T07:20:37;8.50;99.90
27506;DHT22;14939;43.596;1.320;2022-12-29T07:23:03;8.60;99.90
27506;DHT22;14939;43.596;1.320;2022-12-29T07:25:29;8.60;99.90
27506;DHT22;14939;43.596;1.320;2022-12-29T07:27:55;8.50;99.90
27506;DHT22;14939;43.596;1.320;2022-12-29T07:30:20;8.50;99.90
27506;DHT22;14939;43.596;1.320;2022-12-29T07:32:46;8.50;99.90
27506;DHT22;14939;43.596;1.320;2022-12-29T07:35:12;8.50;99.90
27506;DHT22;14939;43.596;1.320;2022-12-29T07:37:37;8.60;99.90
27506;DHT22;14939;43.596;1.320;2022-12-29T07:40:03;8.60;99.90
27506;DHT22;14939;43.596;1.320;2022-12-29T07:42:30;8.50;99.90
27506;DHT22;14939;43.596;1.320;2022-12-29T07:44:56;8.50;99.90
27506;DHT22;14939;43.596;1.320;2022-12-29T07:47:21;8.60;99.90
27506;DHT22;14939;43.596;1.320;2022-12-29T07:49:47;8.60;99.90
27506;DHT22;14939;43.596;1.320;2022-12-29T07:52:13;8.70;99.90
27506;DHT22;14939;43.596;1.320;2022-12-29T07:54:38;8.80;99.90
27506;DHT22;14939;43.596;1.320;2022-12-29T07:57:04;8.90;99.90
27506;DHT22;14939;43.596;1.320;2022-12-29T07:59:31;8.90;99.90
27506;DHT22;14939;43.596;1.320;2022-12-29T08:01:57;8.90;99.90
27506;DHT22;14939;43.596;1.320;2022-12-29T08:04:22;8.90;99.90
27506;DHT22;14939;43.596;1.320;2022-12-29T08:06:48;9.00;99.90
27506;DHT22;14939;43.596;1.320;2022-12-29T08:09:14;9.00;99.90
27506;DHT22;14939;43.596;1.320;2022-12-29T08:11:39;9.00;99.90
27506;DHT22;14939;43.596;1.320;2022-12-29T08:14:06;9.10;99.90
27506;DHT22;14939;43.596;1.320;2022-12-29T08:16:31;9.20;99.90
27506;DHT22;14939;43.596;1.320;2022-12-29T08:18:57;9.20;99.90
27506;DHT22;14939;43.596;1.320;2022-12-29T08:21:24;9.30;99.90
27506;DHT22;14939;43.596;1.320;2022-12-29T08:23:50;9.30;99.90
27506;DHT22;14939;43.596;1.320;2022-12-29T08:26:16;9.40;99.90
27506;DHT22;14939;43.596;1.320;2022-12-29T08:28:42;9.50;99.90
27506;DHT22;14939;43.596;1.320;2022-12-29T08:31:07;9.50;99.90
27506;DHT22;14939;43.596;1.320;2022-12-29T08:33:33;9.60;99.90
27506;DHT22;14939;43.596;1.320;2022-12-29T08:36:03;9.60;99.90
27506;DHT22;14939;43.596;1.320;2022-12-29T08:38:30;9.70;99.90
27506;DHT22;14939;43.596;1.320;2022-12-29T08:40:57;9.60;99.90
27506;DHT22;14939;43.596;1.320;2022-12-29T08:43:24;9.70;99.90
27506;DHT22;14939;43.596;1.320;2022-12-29T08:45:50;9.70;99.90
27506;DHT22;14939;43.596;1.320;2022-12-29T08:48:15;9.70;99.90
27506;DHT22;14939;43.596;1.320;2022-12-29T08:50:45;9.80;99.90
27506;DHT22;14939;43.596;1.320;2022-12-29T08:53:11;9.80;99.90
27506;DHT22;14939;43.596;1.320;2022-12-29T08:55:37;9.80;99.90
27506;DHT22;14939;43.596;1.320;2022-12-29T08:58:03;9.90;99.90
27506;DHT22;14939;43.596;1.320;2022-12-29T09:00:29;9.90;99.90
27506;DHT22;14939;43.596;1.320;2022-12-29T09:02:55;9.90;99.90
27506;DHT22;14939;43.596;1.320;2022-12-29T09:05:20;10.00;99.90
27506;DHT22;14939;43.596;1.320;2022-12-29T09:07:46;10.00;99.90
27506;DHT22;14939;43.596;1.320;2022-12-29T09:10:12;10.00;99.90
27506;DHT22;14939;43.596;1.320;2022-12-29T09:12:38;10.10;99.90
27506;DHT22;14939;43.596;1.320;2022-12-29T09:15:04;10.20;99.90
27506;DHT22;14939;43.596;1.320;2022-12-29T09:17:30;10.20;99.90
27506;DHT22;14939;43.596;1.320;2022-12-29T09:20:17;10.30;99.90
27506;DHT22;14939;43.596;1.320;2022-12-29T09:22:44;10.40;99.90
27506;DHT22;14939;43.596;1.320;2022-12-29T09:25:10;10.60;99.90
27506;DHT22;14939;43.596;1.320;2022-12-29T09:27:36;10.70;99.90
27506;DHT22;14939;43.596;1.320;2022-12-29T09:30:04;10.70;99.90
27506;DHT22;14939;43.596;1.320;2022-12-29T09:32:31;10.80;99.90
27506;DHT22;14939;43.596;1.320;2022-12-29T09:34:56;10.80;99.90
27506;DHT22;14939;43.596;1.320;2022-12-29T09:37:22;10.90;99.90
27506;DHT22;14939;43.596;1.320;2022-12-29T09:39:48;10.80;99.90
27506;DHT22;14939;43.596;1.320;2022-12-29T09:42:23;10.80;99.90
27506;DHT22;14939;43.596;1.320;2022-12-29T09:45:11;10.70;99.90
27506;DHT22;14939;43.596;1.320;2022-12-29T09:47:41;10.60;99.90
27506;DHT22;14939;43.596;1.320;2022-12-29T09:55:39;10.60;99.90
27506;DHT22;14939;43.596;1.320;2022-12-29T09:58:14;10.70;99.90
27506;DHT22;14939;43.596;1.320;2022-12-29T10:00:56;10.80;99.90
27506;DHT22;14939;43.596;1.320;2022-12-29T10:03:26;10.80;99.90
27506;DHT22;14939;43.596;1.320;2022-12-29T10:08:46;11.20;99.90
27506;DHT22;14939;43.596;1.320;2022-12-29T10:11:33;11.30;99.90
27506;DHT22;14939;43.596;1.320;2022-12-29T10:17:13;11.60;99.90
27506;DHT22;14939;43.596;1.320;2022-12-29T10:24:40;11.80;99.90
27506;DHT22;14939;43.596;1.320;2022-12-29T10:27:13;11.90;99.90
27506;DHT22;14939;43.596;1.320;2022-12-29T10:29:45;11.90;99.90
27506;DHT22;14939;43.596;1.320;2022-12-29T10:32:34;11.90;99.90
27506;DHT22;14939;43.596;1.320;2022-12-29T10:35:18;11.90;99.90
27506;DHT22;14939;43.596;1.320;2022-12-29T10:38:05;12.00;99.90
27506;DHT22;14939;43.596;1.320;2022-12-29T10:40:45;12.00;99.90
27506;DHT22;14939;43.596;1.320;2022-12-29T10:45:48;12.10;99.90
27506;DHT22;14939;43.596;1.320;2022-12-29T10:48:21;12.20;99.90
27506;DHT22;14939;43.596;1.320;2022-12-29T10:50:48;12.30;99.90
27506;DHT22;14939;43.596;1.320;2022-12-29T10:53:21;12.40;99.90
27506;DHT22;14939;43.596;1.320;2022-12-29T10:55:49;12.50;99.90
27506;DHT22;14939;43.596;1.320;2022-12-29T10:58:16;12.60;99.90
27506;DHT22;14939;43.596;1.320;2022-12-29T11:00:52;12.60;99.90
27506;DHT22;14939;43.596;1.320;2022-12-29T11:09:15;12.60;99.90
27506;DHT22;14939;43.596;1.320;2022-12-29T11:11:41;12.60;99.90
27506;DHT22;14939;43.596;1.320;2022-12-29T11:14:18;12.70;99.90
27506;DHT22;14939;43.596;1.320;2022-12-29T11:16:44;12.80;99.90
27506;DHT22;14939;43.596;1.320;2022-12-29T11:19:28;13.10;99.90
27506;DHT22;14939;43.596;1.320;2022-12-29T11:22:21;13.40;99.90
27506;DHT22;14939;43.596;1.320;2022-12-29T11:24:49;13.70;99.90
27506;DHT22;14939;43.596;1.320;2022-12-29T11:27:18;13.90;99.90
27506;DHT22;14939;43.596;1.320;2022-12-29T11:29:46;14.00;99.90
27506;DHT22;14939;43.596;1.320;2022-12-29T11:32:18;14.10;99.90
27506;DHT22;14939;43.596;1.320;2022-12-29T11:34:44;14.10;99.90
27506;DHT22;14939;43.596;1.320;2022-12-29T11:37:14;14.10;99.90
27506;DHT22;14939;43.596;1.320;2022-12-29T11:39:58;14.00;99.90
27506;DHT22;14939;43.596;1.320;2022-12-29T11:45:20;14.00;99.90
27506;DHT22;14939;43.596;1.320;2022-12-29T11:48:05;13.90;99.90
27506;DHT22;14939;43.596;1.320;2022-12-29T11:50:33;13.80;99.90
27506;DHT22;14939;43.596;1.320;2022-12-29T11:53:33;13.70;99.90
27506;DHT22;14939;43.596;1.320;2022-12-29T11:56:31;13.70;99.90
27506;DHT22;14939;43.596;1.320;2022-12-29T11:58:58;13.80;99.90
27506;DHT22;14939;43.596;1.320;2022-12-29T12:01:44;13.90;99.90
27506;DHT22;14939;43.596;1.320;2022-12-29T12:04:16;14.10;99.90
27506;DHT22;14939;43.596;1.320;2022-12-29T12:06:48;14.30;99.90
27506;DHT22;14939;43.596;1.320;2022-12-29T12:15:24;14.70;99.90
27506;DHT22;14939;43.596;1.320;2022-12-29T12:18:02;14.80;99.90
27506;DHT22;14939;43.596;1.320;2022-12-29T12:20:40;14.90;99.90
27506;DHT22;14939;43.596;1.320;2022-12-29T12:26:02;14.90;99.90
27506;DHT22;14939;43.596;1.320;2022-12-29T12:29:22;15.00;99.90
27506;DHT22;14939;43.596;1.320;2022-12-29T12:31:35;15.00;99.90
27506;DHT22;14939;43.596;1.320;2022-12-29T12:34:06;15.00;99.90
27506;DHT22;14939;43.596;1.320;2022-12-29T12:36:43;15.10;99.90
27506;DHT22;14939;43.596;1.320;2022-12-29T12:48:11;15.50;99.90
27506;DHT22;14939;43.596;1.320;2022-12-29T12:56:44;15.10;99.90
27506;DHT22;14939;43.596;1.320;2022-12-29T13:07:50;14.60;99.90
27506;DHT22;14939;43.596;1.320;2022-12-29T13:27:41;14.60;99.90
27506;DHT22;14939;43.596;1.320;2022-12-29T13:30:19;14.70;99.90
27506;DHT22;14939;43.596;1.320;2022-12-29T13:33:14;14.70;99.90
27506;DHT22;14939;43.596;1.320;2022-12-29T13:35:54;14.70;99.90
27506;DHT22;14939;43.596;1.320;2022-12-29T13:38:32;14.90;99.90
27506;DHT22;14939;43.596;1.320;2022-12-29T13:41:04;15.00;99.90
27506;DHT22;14939;43.596;1.320;2022-12-29T13:43:33;15.00;99.90
27506;DHT22;14939;43.596;1.320;2022-12-29T13:46:37;14.90;99.90
27506;DHT22;14939;43.596;1.320;2022-12-29T13:49:21;14.80;99.90
27506;DHT22;14939;43.596;1.320;2022-12-29T13:57:59;14.80;99.90
27506;DHT22;14939;43.596;1.320;2022-12-29T14:00:14;14.90;99.90
27506;DHT22;14939;43.596;1.320;2022-12-29T14:02:50;15.00;99.90
27506;DHT22;14939;43.596;1.320;2022-12-29T14:08:14;15.30;99.90
27506;DHT22;14939;43.596;1.320;2022-12-29T14:10:49;15.40;99.90
27506;DHT22;14939;43.596;1.320;2022-12-29T14:13:22;15.60;99.90
27506;DHT22;14939;43.596;1.320;2022-12-29T14:15:56;15.70;99.90
27506;DHT22;14939;43.596;1.320;2022-12-29T14:18:28;15.70;99.90
27506;DHT22;14939;43.596;1.320;2022-12-29T14:23:43;15.50;99.90
27506;DHT22;14939;43.596;1.320;2022-12-29T14:26:18;15.40;99.90
27506;DHT22;14939;43.596;1.320;2022-12-29T14:31:53;15.30;99.90
27506;DHT22;14939;43.596;1.320;2022-12-29T14:34:29;15.20;99.90
27506;DHT22;14939;43.596;1.320;2022-12-29T14:36:58;15.20;99.90
27506;DHT22;14939;43.596;1.320;2022-12-29T14:39:29;15.10;99.90
27506;DHT22;14939;43.596;1.320;2022-12-29T14:44:33;14.80;99.90
27506;DHT22;14939;43.596;1.320;2022-12-29T14:47:11;14.60;99.90
27506;DHT22;14939;43.596;1.320;2022-12-29T14:49:43;14.50;99.90
27506;DHT22;14939;43.596;1.320;2022-12-29T14:52:24;14.40;99.90
27506;DHT22;14939;43.596;1.320;2022-12-29T14:54:58;14.40;99.90
27506;DHT22;14939;43.596;1.320;2022-12-29T14:57:32;14.30;99.90
27506;DHT22;14939;43.596;1.320;2022-12-29T15:00:35;14.30;99.90
27506;DHT22;14939;43.596;1.320;2022-12-29T15:03:06;14.20;99.90
27506;DHT22;14939;43.596;1.320;2022-12-29T15:06:06;14.20;99.90
27506;DHT22;14939;43.596;1.320;2022-12-29T15:08:37;14.10;99.90
27506;DHT22;14939;43.596;1.320;2022-12-29T15:11:09;14.00;99.90
27506;DHT22;14939;43.596;1.320;2022-12-29T15:13:38;14.00;99.90
27506;DHT22;14939;43.596;1.320;2022-12-29T15:16:12;13.90;99.90
27506;DHT22;14939;43.596;1.320;2022-12-29T15:18:46;13.90;99.90
27506;DHT22;14939;43.596;1.320;2022-12-29T15:21:14;13.90;99.90
27506;DHT22;14939;43.596;1.320;2022-12-29T15:23:43;13.90;99.90
27506;DHT22;14939;43.596;1.320;2022-12-29T15:26:10;13.90;99.90
27506;DHT22;14939;43.596;1.320;2022-12-29T15:28:42;13.90;99.90
27506;DHT22;14939;43.596;1.320;2022-12-29T15:31:11;13.80;99.90
27506;DHT22;14939;43.596;1.320;2022-12-29T15:33:41;13.70;99.90
27506;DHT22;14939;43.596;1.320;2022-12-29T15:36:13;13.70;99.90
27506;DHT22;14939;43.596;1.320;2022-12-29T15:38:39;13.50;99.90
27506;DHT22;14939;43.596;1.320;2022-12-29T15:41:53;13.40;99.90
27506;DHT22;14939;43.596;1.320;2022-12-29T15:46:33;13.30;99.90
27506;DHT22;14939;43.596;1.320;2022-12-29T15:48:59;13.20;99.90
27506;DHT22;14939;43.596;1.320;2022-12-29T15:51:32;13.20;99.90
27506;DHT22;14939;43.596;1.320;2022-12-29T15:53:58;13.10;99.90
27506;DHT22;14939;43.596;1.320;2022-12-29T15:56:28;13.10;99.90
27506;DHT22;14939;43.596;1.320;2022-12-29T15:58:54;13.10;99.90
27506;DHT22;14939;43.596;1.320;2022-12-29T16:04:00;13.00;99.90
27506;DHT22;14939;43.596;1.320;2022-12-29T16:06:31;13.00;99.90
27506;DHT22;14939;43.596;1.320;2022-12-29T16:09:18;12.90;99.90
27506;DHT22;14939;43.596;1.320;2022-12-29T16:11:55;12.80;99.90
27506;DHT22;14939;43.596;1.320;2022-12-29T16:14:38;12.70;99.90
27506;DHT22;14939;43.596;1.320;2022-12-29T16:17:09;12.70;99.90
27506;DHT22;14939;43.596;1.320;2022-12-29T16:19:38;12.60;99.90
27506;DHT22;14939;43.596;1.320;2022-12-29T16:22:17;12.60;99.90
27506;DHT22;14939;43.596;1.320;2022-12-29T16:24:46;12.60;99.90
27506;DHT22;14939;43.596;1.320;2022-12-29T16:27:44;12.60;99.90
27506;DHT22;14939;43.596;1.320;2022-12-29T16:30:20;12.50;99.90
27506;DHT22;14939;43.596;1.320;2022-12-29T16:32:58;12.50;99.90
27506;DHT22;14939;43.596;1.320;2022-12-29T16:35:26;12.50;99.90
27506;DHT22;14939;43.596;1.320;2022-12-29T16:38:22;12.40;99.90
27506;DHT22;14939;43.596;1.320;2022-12-29T16:40:55;12.30;99.90
27506;DHT22;14939;43.596;1.320;2022-12-29T16:43:36;12.30;99.90
27506;DHT22;14939;43.596;1.320;2022-12-29T16:46:26;12.20;99.90
27506;DHT22;14939;43.596;1.320;2022-12-29T16:48:54;12.20;99.90
27506;DHT22;14939;43.596;1.320;2022-12-29T16:51:30;12.20;99.90
27506;DHT22;14939;43.596;1.320;2022-12-29T16:53:56;12.10;99.90
27506;DHT22;14939;43.596;1.320;2022-12-29T16:56:25;12.10;99.90
27506;DHT22;14939;43.596;1.320;2022-12-29T16:59:05;12.10;99.90
27506;DHT22;14939;43.596;1.320;2022-12-29T17:01:36;12.10;99.90
27506;DHT22;14939;43.596;1.320;2022-12-29T17:04:07;12.10;99.90
27506;DHT22;14939;43.596;1.320;2022-12-29T17:06:34;12.10;99.90
27506;DHT22;14939;43.596;1.320;2022-12-29T17:08:59;12.00;99.90
27506;DHT22;14939;43.596;1.320;2022-12-29T17:11:31;11.30;99.90
27506;DHT22;14939;43.596;1.320;2022-12-29T17:14:30;11.00;99.90
27506;DHT22;14939;43.596;1.320;2022-12-29T17:16:57;10.80;99.90
27506;DHT22;14939;43.596;1.320;2022-12-29T17:19:33;10.70;99.90
27506;DHT22;14939;43.596;1.320;2022-12-29T17:22:00;10.70;99.90
27506;DHT22;14939;43.596;1.320;2022-12-29T17:24:26;10.70;99.90
27506;DHT22;14939;43.596;1.320;2022-12-29T17:26:57;10.80;99.90
27506;DHT22;14939;43.596;1.320;2022-12-29T17:29:38;10.80;99.90
27506;DHT22;14939;43.596;1.320;2022-12-29T17:32:11;10.80;99.90
27506;DHT22;14939;43.596;1.320;2022-12-29T17:34:38;10.80;99.90
27506;DHT22;14939;43.596;1.320;2022-12-29T17:37:25;10.80;99.90
27506;DHT22;14939;43.596;1.320;2022-12-29T17:39:52;10.80;99.90
27506;DHT22;14939;43.596;1.320;2022-12-29T17:42:18;10.80;99.90
27506;DHT22;14939;43.596;1.320;2022-12-29T17:44:44;10.80;99.90
27506;DHT22;14939;43.596;1.320;2022-12-29T17:47:11;10.80;99.90
27506;DHT22;14939;43.596;1.320;2022-12-29T17:49:37;10.80;99.90
27506;DHT22;14939;43.596;1.320;2022-12-29T17:52:03;10.80;99.90
27506;DHT22;14939;43.596;1.320;2022-12-29T17:54:30;10.80;99.90
27506;DHT22;14939;43.596;1.320;2022-12-29T17:56:57;10.80;99.90
27506;DHT22;14939;43.596;1.320;2022-12-29T17:59:22;10.80;99.90
27506;DHT22;14939;43.596;1.320;2022-12-29T18:01:48;10.80;99.90
27506;DHT22;14939;43.596;1.320;2022-12-29T18:04:17;10.80;99.90
27506;DHT22;14939;43.596;1.320;2022-12-29T18:06:44;10.70;99.90
27506;DHT22;14939;43.596;1.320;2022-12-29T18:09:11;10.70;99.90
27506;DHT22;14939;43.596;1.320;2022-12-29T18:11:39;10.70;99.90
27506;DHT22;14939;43.596;1.320;2022-12-29T18:14:13;10.70;99.90
27506;DHT22;14939;43.596;1.320;2022-12-29T18:16:39;10.60;99.90
27506;DHT22;14939;43.596;1.320;2022-12-29T18:19:05;10.60;99.90
27506;DHT22;14939;43.596;1.320;2022-12-29T18:21:31;10.60;99.90
27506;DHT22;14939;43.596;1.320;2022-12-29T18:23:57;10.50;99.90
27506;DHT22;14939;43.596;1.320;2022-12-29T18:26:26;10.50;99.90
27506;DHT22;14939;43.596;1.320;2022-12-29T18:28:53;10.40;99.90
27506;DHT22;14939;43.596;1.320;2022-12-29T18:33:47;10.40;99.90
27506;DHT22;14939;43.596;1.320;2022-12-29T18:36:14;10.30;99.90